Time,TemperatureF,DewpointF,PressureIn,WindDirection,WindDirectionDegrees,WindSpeedMPH,WindSpeedGustMPH,Humidity,HourlyPrecipIn,Conditions,Clouds,dailyrainin,SolarRadiationWatts/m^2,SoftwareType,DateUTC
2013-03-19 00:12:00,68.0,39.0,-100.00,SSE,147,3.0,7.0,34,0.00,,,0.00,0.000000,,2013-03-19 07:12:00,
2013-03-19 00:21:00,68.0,39.0,-100.00,SSE,147,3.0,7.0,34,0.00,,,0.00,0.000000,,2013-03-19 07:21:00,
2013-03-19 00:32:00,68.0,39.0,-100.00,SSE,147,3.0,7.0,34,0.00,,,0.00,0.000000,,2013-03-19 07:32:00,
2013-03-19 00:42:00,68.0,39.0,-100.00,SSE,147,3.0,7.0,34,0.00,,,0.00,0.000000,,2013-03-19 07:42:00,
2013-03-19 01:12:00,68.0,39.0,-100.00,SE,145,7.0,9.0,34,0.00,,,0.00,0.000000,,2013-03-19 08:12:00,
2013-03-19 01:22:00,68.0,39.0,-100.00,SE,145,7.0,9.0,34,0.00,,,0.00,0.000000,,2013-03-19 08:22:00,
2013-03-19 01:32:00,68.0,39.0,-100.00,SE,145,7.0,9.0,34,0.00,,,0.00,0.000000,,2013-03-19 08:32:00,
2013-03-19 01:42:00,68.0,39.0,-100.00,SE,145,7.0,9.0,34,0.00,,,0.00,0.000000,,2013-03-19 08:42:00,
2013-03-19 02:12:00,66.0,38.0,-100.00,SSE,149,7.0,10.0,36,0.00,,,0.00,0.000000,,2013-03-19 09:12:00,
2013-03-19 02:22:00,66.0,38.0,-100.00,SSE,149,7.0,10.0,36,0.00,,,0.00,0.000000,,2013-03-19 09:22:00,
2013-03-19 02:32:00,66.0,38.0,-100.00,SSE,149,7.0,10.0,36,0.00,,,0.00,0.000000,,2013-03-19 09:32:00,
2013-03-19 02:42:00,66.0,38.0,-100.00,SSE,149,7.0,10.0,36,0.00,,,0.00,0.000000,,2013-03-19 09:42:00,
2013-03-19 03:12:00,63.0,39.0,-100.00,South,176,5.0,9.0,41,0.00,,,0.00,0.000000,,2013-03-19 10:12:00,
2013-03-19 03:23:00,63.0,39.0,-100.00,South,176,5.0,9.0,41,0.00,,,0.00,0.000000,,2013-03-19 10:23:00,
2013-03-19 03:32:00,63.0,39.0,-100.00,South,176,5.0,9.0,41,0.00,,,0.00,0.000000,,2013-03-19 10:32:00,
2013-03-19 03:42:00,63.0,39.0,-100.00,South,176,5.0,9.0,41,0.00,,,0.00,0.000000,,2013-03-19 10:42:00,
2013-03-19 04:12:00,63.0,44.0,-100.00,SSE,165,3.0,9.0,49,0.00,,,0.00,0.000000,,2013-03-19 11:12:00,
2013-03-19 04:22:00,63.0,44.0,-100.00,SSE,165,3.0,9.0,49,0.00,,,0.00,0.000000,,2013-03-19 11:22:00,
2013-03-19 04:32:00,63.0,44.0,-100.00,SSE,165,3.0,9.0,49,0.00,,,0.00,0.000000,,2013-03-19 11:32:00,
2013-03-19 04:42:00,63.0,44.0,-100.00,SSE,165,3.0,9.0,49,0.00,,,0.00,0.000000,,2013-03-19 11:42:00,
2013-03-19 05:12:00,62.0,42.0,-100.00,South,183,6.0,8.0,48,0.00,,,0.00,0.000000,,2013-03-19 12:12:00,
2013-03-19 05:22:00,62.0,42.0,-100.00,South,183,6.0,8.0,48,0.00,,,0.00,0.000000,,2013-03-19 12:22:00,
2013-03-19 05:32:00,62.0,42.0,-100.00,South,183,6.0,8.0,48,0.00,,,0.00,0.000000,,2013-03-19 12:32:00,
2013-03-19 05:42:00,62.0,42.0,-100.00,South,183,6.0,8.0,48,0.00,,,0.00,0.000000,,2013-03-19 12:42:00,
2013-03-19 06:12:00,61.0,43.0,-100.00,South,181,6.0,8.0,52,0.00,,,0.00,0.000000,,2013-03-19 13:12:00,
2013-03-19 06:22:00,61.0,43.0,-100.00,South,181,6.0,8.0,52,0.00,,,0.00,0.000000,,2013-03-19 13:22:00,
2013-03-19 06:32:00,61.0,43.0,-100.00,South,181,6.0,8.0,52,0.00,,,0.00,0.000000,,2013-03-19 13:32:00,
2013-03-19 06:42:00,61.0,43.0,-100.00,South,181,6.0,8.0,52,0.00,,,0.00,0.000000,,2013-03-19 13:42:00,
2013-03-19 07:12:00,59.0,42.0,-100.00,South,173,4.0,6.0,53,0.00,,,0.00,0.000000,,2013-03-19 14:12:00,
2013-03-19 07:22:00,59.0,42.0,-100.00,South,173,4.0,6.0,53,0.00,,,0.00,0.000000,,2013-03-19 14:22:00,
2013-03-19 07:32:00,59.0,42.0,-100.00,South,173,4.0,6.0,53,0.00,,,0.00,0.000000,,2013-03-19 14:32:00,
2013-03-19 07:42:00,59.0,42.0,-100.00,South,173,4.0,6.0,53,0.00,,,0.00,0.000000,,2013-03-19 14:42:00,
2013-03-19 08:12:00,62.0,43.0,-100.00,SSW,208,5.0,8.0,49,0.00,,,0.00,83.000000,,2013-03-19 15:12:00,
2013-03-19 08:22:00,62.0,43.0,-100.00,SSW,208,5.0,8.0,49,0.00,,,0.00,83.000000,,2013-03-19 15:22:00,
2013-03-19 08:33:00,62.0,43.0,-100.00,SSW,208,5.0,8.0,49,0.00,,,0.00,83.000000,,2013-03-19 15:33:00,
2013-03-19 08:43:00,62.0,43.0,-100.00,SSW,208,5.0,8.0,49,0.00,,,0.00,83.000000,,2013-03-19 15:43:00,
2013-03-19 09:13:00,70.0,43.0,-100.00,South,169,6.0,10.0,38,0.00,,,0.00,338.000000,,2013-03-19 16:13:00,
2013-03-19 09:23:00,70.0,43.0,-100.00,South,169,6.0,10.0,38,0.00,,,0.00,338.000000,,2013-03-19 16:23:00,
2013-03-19 09:33:00,70.0,43.0,-100.00,South,169,6.0,10.0,38,0.00,,,0.00,338.000000,,2013-03-19 16:33:00,
2013-03-19 09:43:00,70.0,43.0,-100.00,South,169,6.0,10.0,38,0.00,,,0.00,338.000000,,2013-03-19 16:43:00,
2013-03-19 10:13:00,75.0,37.0,-100.00,SSE,149,6.0,9.0,25,0.00,,,0.00,595.000000,,2013-03-19 17:13:00,
2013-03-19 10:23:00,75.0,37.0,-100.00,SSE,149,6.0,9.0,25,0.00,,,0.00,595.000000,,2013-03-19 17:23:00,
2013-03-19 10:34:00,75.0,37.0,-100.00,SSE,149,6.0,9.0,25,0.00,,,0.00,595.000000,,2013-03-19 17:34:00,
2013-03-19 10:43:00,75.0,37.0,-100.00,SSE,149,6.0,9.0,25,0.00,,,0.00,595.000000,,2013-03-19 17:43:00,
2013-03-19 11:13:00,80.0,35.0,-100.00,South,180,6.0,10.0,20,0.00,,,0.00,800.000000,,2013-03-19 18:13:00,
2013-03-19 11:23:00,80.0,35.0,-100.00,South,180,6.0,10.0,20,0.00,,,0.00,800.000000,,2013-03-19 18:23:00,
2013-03-19 11:33:00,80.0,35.0,-100.00,South,180,6.0,10.0,20,0.00,,,0.00,800.000000,,2013-03-19 18:33:00,
2013-03-19 11:42:00,80.0,35.0,-100.00,South,180,6.0,10.0,20,0.00,,,0.00,800.000000,,2013-03-19 18:42:00,
2013-03-19 12:12:00,85.0,29.0,-100.00,NW,313,9.0,15.0,13,0.00,,,0.00,944.000000,,2013-03-19 19:12:00,
2013-03-19 12:22:00,85.0,29.0,-100.00,NW,313,9.0,15.0,13,0.00,,,0.00,944.000000,,2013-03-19 19:22:00,
2013-03-19 12:32:00,85.0,29.0,-100.00,NW,313,9.0,15.0,13,0.00,,,0.00,944.000000,,2013-03-19 19:32:00,
2013-03-19 12:42:00,85.0,29.0,-100.00,NW,313,9.0,15.0,13,0.00,,,0.00,944.000000,,2013-03-19 19:42:00,
2013-03-19 13:12:00,87.0,30.0,-100.00,NW,305,13.0,29.0,13,0.00,,,0.00,976.000000,,2013-03-19 20:12:00,
2013-03-19 13:22:00,87.0,30.0,-100.00,NW,305,13.0,29.0,13,0.00,,,0.00,976.000000,,2013-03-19 20:22:00,
2013-03-19 13:32:00,87.0,30.0,-100.00,NW,305,13.0,29.0,13,0.00,,,0.00,976.000000,,2013-03-19 20:32:00,
2013-03-19 13:42:00,87.0,30.0,-100.00,NW,305,13.0,29.0,13,0.00,,,0.00,976.000000,,2013-03-19 20:42:00,
2013-03-19 14:12:00,87.0,30.0,-100.00,NNE,26,8.0,18.0,13,0.00,,,0.00,982.000000,,2013-03-19 21:12:00,
2013-03-19 14:22:00,87.0,30.0,-100.00,NNE,26,8.0,18.0,13,0.00,,,0.00,982.000000,,2013-03-19 21:22:00,
2013-03-19 14:33:00,87.0,30.0,-100.00,NNE,26,8.0,18.0,13,0.00,,,0.00,982.000000,,2013-03-19 21:33:00,
2013-03-19 14:42:00,87.0,30.0,-100.00,NNE,26,8.0,18.0,13,0.00,,,0.00,982.000000,,2013-03-19 21:42:00,
2013-03-19 15:12:00,87.0,28.0,-100.00,NNE,29,11.0,15.0,12,0.00,,,0.00,885.000000,,2013-03-19 22:12:00,
2013-03-19 15:23:00,87.0,28.0,-100.00,NNE,29,11.0,15.0,12,0.00,,,0.00,885.000000,,2013-03-19 22:23:00,
2013-03-19 15:33:00,87.0,28.0,-100.00,NNE,29,11.0,15.0,12,0.00,,,0.00,885.000000,,2013-03-19 22:33:00,
2013-03-19 15:43:00,87.0,28.0,-100.00,NNE,29,11.0,15.0,12,0.00,,,0.00,885.000000,,2013-03-19 22:43:00,
2013-03-19 16:12:00,88.0,29.0,-100.00,North,2,7.0,16.0,12,0.00,,,0.00,727.000000,,2013-03-19 23:12:00,
2013-03-19 16:22:00,88.0,29.0,-100.00,North,2,7.0,16.0,12,0.00,,,0.00,727.000000,,2013-03-19 23:22:00,
2013-03-19 16:32:00,88.0,29.0,-100.00,North,2,7.0,16.0,12,0.00,,,0.00,727.000000,,2013-03-19 23:32:00,
2013-03-19 16:42:00,88.0,29.0,-100.00,North,2,7.0,16.0,12,0.00,,,0.00,727.000000,,2013-03-19 23:42:00,
2013-03-19 17:12:00,88.0,27.0,-100.00,NNW,348,6.0,13.0,11,0.00,,,0.00,503.000000,,2013-03-20 00:12:00,
2013-03-19 17:22:00,88.0,27.0,-100.00,NNW,348,6.0,13.0,11,0.00,,,0.00,503.000000,,2013-03-20 00:22:00,
2013-03-19 17:32:00,88.0,27.0,-100.00,NNW,348,6.0,13.0,11,0.00,,,0.00,503.000000,,2013-03-20 00:32:00,
2013-03-19 17:42:00,88.0,27.0,-100.00,NNW,348,6.0,13.0,11,0.00,,,0.00,503.000000,,2013-03-20 00:42:00,
2013-03-19 18:12:00,87.0,28.0,-100.00,NNE,28,5.0,10.0,12,0.00,,,0.00,262.000000,,2013-03-20 01:12:00,
2013-03-19 18:22:00,87.0,28.0,-100.00,NNE,28,5.0,10.0,12,0.00,,,0.00,262.000000,,2013-03-20 01:22:00,
2013-03-19 18:32:00,87.0,28.0,-100.00,NNE,28,5.0,10.0,12,0.00,,,0.00,262.000000,,2013-03-20 01:32:00,
2013-03-19 18:42:00,87.0,28.0,-100.00,NNE,28,5.0,10.0,12,0.00,,,0.00,262.000000,,2013-03-20 01:42:00,
2013-03-19 19:12:00,81.0,27.0,-100.00,North,352,4.0,7.0,14,0.00,,,0.00,71.000000,,2013-03-20 02:12:00,
2013-03-19 19:22:00,81.0,27.0,-100.00,North,352,4.0,7.0,14,0.00,,,0.00,71.000000,,2013-03-20 02:22:00,
2013-03-19 19:32:00,81.0,27.0,-100.00,North,352,4.0,7.0,14,0.00,,,0.00,71.000000,,2013-03-20 02:32:00,
2013-03-19 19:42:00,81.0,27.0,-100.00,North,352,4.0,7.0,14,0.00,,,0.00,71.000000,,2013-03-20 02:42:00,
2013-03-19 20:12:00,69.0,33.0,-100.00,West,260,3.0,4.0,26,0.00,,,0.00,0.000000,,2013-03-20 03:12:00,
2013-03-19 21:12:00,65.0,31.0,-100.00,NW,308,2.0,4.0,28,-99.99,,,0.00,0.000000,,2013-03-20 04:12:00,
2013-03-19 22:12:00,62.0,34.0,-100.00,SSE,167,3.0,6.0,35,-99.99,,,0.00,0.000000,,2013-03-20 05:12:00,
2013-03-19 22:22:00,62.0,34.0,-100.00,SSE,167,3.0,6.0,35,-99.99,,,0.00,0.000000,,2013-03-20 05:22:00,
2013-03-19 23:12:00,64.0,33.0,-100.00,SSE,159,5.0,6.0,31,-99.99,,,0.00,0.000000,,2013-03-20 06:12:00,
2013-03-19 23:22:00,64.0,33.0,-100.00,SSE,159,5.0,6.0,31,-99.99,,,0.00,0.000000,,2013-03-20 06:22:00,
2013-03-19 23:32:00,64.0,33.0,-100.00,SSE,159,5.0,6.0,31,-99.99,,,0.00,0.000000,,2013-03-20 06:32:00,
2013-03-19 23:42:00,64.0,33.0,-100.00,SSE,159,5.0,6.0,31,-99.99,,,0.00,0.000000,,2013-03-20 06:42:00,